Time;durP1;ratioP1;P1;durP2;ratioP2;P2;SDS_P1;SDS_P2;PMS_P1;PMS_P2;Temp;Humidity;BMP_temperature;BMP_pressure;BME280_temperature;BME280_humidity;BME280_pressure;Samples;Min_cycle;Max_cycle;Signal;HPM_P1;HPM_P2
2023/08/28 04:31:26;;;;;;;0.10;0.10;;;17.40;82.30;;;;;;5470550;23;20084;-76
2023/08/28 04:33:52;;;;;;;0.00;0.00;;;17.50;82.20;;;;;;4987280;28;20031;-76
2023/08/28 04:36:18;;;;;;;0.00;0.00;;;17.40;82.20;;;;;;4984574;28;20032;-76
2023/08/28 04:38:44;;;;;;;0.10;0.10;;;17.40;82.20;;;;;;4998453;28;20412;-76
2023/08/28 04:41:09;;;;;;;0.00;0.00;;;17.40;82.30;;;;;;4988008;28;20022;-76
2023/08/28 04:43:35;;;;;;;0.00;0.00;;;17.30;82.30;;;;;;4984532;28;20066;-76
2023/08/28 04:46:01;;;;;;;0.00;0.00;;;17.30;82.40;;;;;;4998044;28;20023;-84
2023/08/28 04:48:27;;;;;;;0.00;0.00;;;17.20;82.30;;;;;;4980409;28;20029;-84
2023/08/28 04:50:52;;;;;;;0.00;0.00;;;17.30;82.40;;;;;;4957604;29;20039;-84
2023/08/28 04:53:18;;;;;;;0.00;0.00;;;17.20;82.40;;;;;;4959045;29;20107;-86
2023/08/28 04:55:43;;;;;;;0.00;0.00;;;17.20;82.30;;;;;;4959129;29;20418;-85
2023/08/28 04:58:09;;;;;;;0.00;0.00;;;17.20;82.30;;;;;;4958947;29;20049;-85
2023/08/28 05:00:35;;;;;;;0.00;0.00;;;17.10;82.40;;;;;;4944350;28;20129;-82
2023/08/28 05:03:01;;;;;;;0.00;0.00;;;17.10;82.30;;;;;;4977721;28;20037;-84
2023/08/28 05:05:26;;;;;;;0.00;0.00;;;17.00;82.40;;;;;;4957294;28;20047;-85
2023/08/28 05:07:52;;;;;;;0.00;0.00;;;17.00;82.40;;;;;;4998305;28;20026;-86
2023/08/28 05:10:18;;;;;;;0.00;0.00;;;17.00;82.50;;;;;;4980905;28;20022;-83
2023/08/28 05:12:44;;;;;;;0.00;0.00;;;17.10;82.50;;;;;;4945939;28;20027;-85
2023/08/28 05:15:10;;;;;;;0.00;0.00;;;17.00;82.40;;;;;;4970370;28;20422;-87
2023/08/28 05:17:36;;;;;;;0.00;0.00;;;17.00;82.20;;;;;;4962023;28;20054;-85
2023/08/28 05:20:01;;;;;;;0.00;0.00;;;16.90;82.30;;;;;;4959184;28;20031;-84
2023/08/28 05:22:27;;;;;;;0.00;0.00;;;16.90;82.20;;;;;;4941646;29;20043;-85
2023/08/28 05:24:52;;;;;;;0.05;0.05;;;16.90;82.30;;;;;;4966474;28;20062;-84
2023/08/28 05:27:18;;;;;;;0.00;0.00;;;16.90;82.20;;;;;;4976267;28;20038;-84
2023/08/28 05:29:46;;;;;;;0.00;0.00;;;16.90;82.20;;;;;;4942187;29;20058;-85
2023/08/28 05:32:11;;;;;;;0.00;0.00;;;16.90;82.10;;;;;;4963556;28;20109;-85
2023/08/28 05:34:37;;;;;;;0.00;0.00;;;16.90;82.00;;;;;;4958470;28;20098;-84
2023/08/28 05:37:03;;;;;;;0.05;0.00;;;16.80;82.10;;;;;;4966137;28;20455;-85
2023/08/28 05:39:28;;;;;;;0.00;0.00;;;16.80;81.90;;;;;;4943683;29;20027;-85
2023/08/28 05:41:54;;;;;;;0.00;0.00;;;16.80;82.20;;;;;;4982695;28;20070;-80
2023/08/28 05:44:19;;;;;;;0.00;0.00;;;16.80;82.00;;;;;;4974375;28;20027;-81
2023/08/28 05:46:45;;;;;;;0.00;0.00;;;16.90;82.20;;;;;;4968555;28;20046;-81
2023/08/28 05:49:11;;;;;;;0.00;0.00;;;17.00;82.10;;;;;;4976759;28;20023;-81
2023/08/28 05:51:37;;;;;;;0.00;0.00;;;17.10;82.10;;;;;;4960068;28;20046;-83
2023/08/28 05:54:03;;;;;;;0.03;0.03;;;17.20;82.10;;;;;;4974853;28;20045;-85
2023/08/28 05:56:28;;;;;;;0.00;0.00;;;17.20;81.90;;;;;;4978038;28;20038;-87
2023/08/28 05:58:54;;;;;;;0.08;0.08;;;17.20;81.90;;;;;;4976695;28;20370;-79
2023/08/28 06:01:20;;;;;;;0.00;0.00;;;17.20;81.80;;;;;;4972172;28;20039;-78
2023/08/28 06:03:45;;;;;;;0.00;0.00;;;17.30;81.60;;;;;;4951971;28;20039;-78
2023/08/28 06:06:12;;;;;;;0.03;0.03;;;17.30;81.60;;;;;;4967551;28;20027;-79
2023/08/28 06:08:37;;;;;;;0.00;0.00;;;17.30;81.50;;;;;;4961457;28;20019;-79
2023/08/28 06:11:03;;;;;;;0.00;0.00;;;17.30;81.70;;;;;;4945752;28;20126;-79
2023/08/28 06:13:29;;;;;;;0.00;0.00;;;17.30;81.60;;;;;;4940523;29;20038;-79
2023/08/28 06:15:54;;;;;;;0.00;0.00;;;17.30;81.60;;;;;;4958030;29;20035;-79
2023/08/28 06:18:20;;;;;;;0.00;0.00;;;17.50;81.50;;;;;;4955305;28;20134;-79
2023/08/28 06:20:45;;;;;;;0.10;0.10;;;17.60;81.30;;;;;;4969488;28;20035;-79
2023/08/28 06:23:11;;;;;;;0.05;0.05;;;17.60;81.30;;;;;;4970496;28;20058;-79
2023/08/28 06:25:37;;;;;;;0.00;0.00;;;17.70;81.30;;;;;;4954478;28;20034;-78
2023/08/28 06:28:02;;;;;;;0.10;0.10;;;17.70;81.30;;;;;;4976775;28;20147;-78
2023/08/28 06:30:28;;;;;;;0.00;0.00;;;17.70;81.20;;;;;;4960696;28;20043;-78
2023/08/28 06:32:54;;;;;;;0.00;0.00;;;17.80;81.10;;;;;;4956652;28;20027;-79
2023/08/28 06:35:19;;;;;;;0.00;0.00;;;17.80;81.00;;;;;;4955044;29;20041;-79
2023/08/28 06:37:45;;;;;;;0.00;0.00;;;17.90;81.00;;;;;;4957775;29;20441;-79
2023/08/28 06:40:11;;;;;;;0.00;0.00;;;18.00;80.90;;;;;;4950037;28;20049;-79
2023/08/28 06:42:37;;;;;;;0.00;0.00;;;17.90;80.80;;;;;;4985670;28;20031;-78
2023/08/28 06:45:03;;;;;;;0.00;0.00;;;17.90;80.80;;;;;;4940191;29;20039;-78
2023/08/28 06:47:29;;;;;;;0.00;0.00;;;17.80;80.90;;;;;;4957128;28;20398;-78
2023/08/28 06:49:56;;;;;;;0.00;0.00;;;17.80;81.00;;;;;;4957312;29;20027;-79
2023/08/28 06:52:21;;;;;;;0.00;0.00;;;17.80;80.90;;;;;;4949396;28;20027;-80
2023/08/28 06:54:47;;;;;;;0.10;0.10;;;17.80;80.90;;;;;;4980478;28;20030;-80
2023/08/28 06:57:14;;;;;;;0.00;0.00;;;17.80;80.90;;;;;;4973201;28;20557;-79
2023/08/28 06:59:39;;;;;;;0.00;0.00;;;17.80;80.80;;;;;;4984145;28;20030;-80
2023/08/28 07:02:05;;;;;;;0.00;0.00;;;17.80;80.80;;;;;;4982461;28;20468;-80
2023/08/28 07:04:31;;;;;;;0.00;0.00;;;17.80;80.70;;;;;;4979745;28;20023;-80
2023/08/28 07:06:56;;;;;;;0.00;0.00;;;17.80;80.70;;;;;;4968744;28;20519;-85
2023/08/28 07:09:22;;;;;;;0.00;0.00;;;17.80;80.70;;;;;;4976113;28;20019;-79
2023/08/28 07:11:48;;;;;;;0.00;0.00;;;17.70;80.90;;;;;;4972207;28;20060;-81
2023/08/28 07:14:13;;;;;;;0.10;0.10;;;17.70;80.80;;;;;;4939627;29;20062;-78
2023/08/28 07:16:39;;;;;;;0.10;0.10;;;17.70;80.50;;;;;;4957287;28;20042;-79
2023/08/28 07:19:05;;;;;;;0.00;0.00;;;17.70;80.70;;;;;;4965867;28;20040;-80
2023/08/28 07:21:30;;;;;;;0.00;0.00;;;17.80;80.50;;;;;;4973791;28;20114;-79
2023/08/28 07:23:57;;;;;;;0.00;0.00;;;17.80;80.60;;;;;;4967093;28;20030;-79
2023/08/28 07:26:22;;;;;;;0.10;0.10;;;17.90;80.40;;;;;;4965935;28;20452;-80
2023/08/28 07:28:48;;;;;;;0.10;0.10;;;18.00;80.20;;;;;;4966177;28;20026;-79
2023/08/28 07:31:14;;;;;;;0.00;0.00;;;18.00;80.10;;;;;;4964972;28;20115;-77
2023/08/28 07:33:40;;;;;;;0.00;0.00;;;18.00;80.30;;;;;;4959288;28;20038;-79
2023/08/28 07:36:06;;;;;;;0.00;0.00;;;18.00;80.10;;;;;;4965965;28;20035;-79
2023/08/28 07:38:32;;;;;;;0.00;0.00;;;18.20;79.80;;;;;;4962633;28;20517;-80
2023/08/28 07:40:58;;;;;;;0.00;0.00;;;18.40;79.40;;;;;;4970284;28;20026;-80
2023/08/28 07:43:24;;;;;;;0.00;0.00;;;19.50;77.10;;;;;;4964726;28;20031;-80
2023/08/28 07:45:50;;;;;;;0.00;0.00;;;19.80;75.40;;;;;;4965476;28;20042;-79
2023/08/28 07:48:16;;;;;;;0.00;0.00;;;19.90;75.30;;;;;;4966397;28;20031;-80
2023/08/28 07:50:42;;;;;;;0.00;0.00;;;19.90;74.50;;;;;;4950038;28;20389;-79
2023/08/28 07:53:08;;;;;;;0.00;0.00;;;19.90;74.50;;;;;;4947761;28;20028;-80
2023/08/28 07:55:34;;;;;;;0.00;0.00;;;20.10;74.40;;;;;;4966622;28;20118;-80
2023/08/28 07:58:00;;;;;;;0.00;0.00;;;20.70;72.90;;;;;;4975699;28;20108;-80
2023/08/28 08:00:25;;;;;;;0.10;0.10;;;21.30;71.30;;;;;;4969446;28;20038;-80
2023/08/28 08:02:52;;;;;;;0.10;0.10;;;22.20;69.40;;;;;;4965225;28;20035;-80
2023/08/28 08:05:18;;;;;;;0.10;0.10;;;22.90;66.20;;;;;;4949951;28;20031;-80
2023/08/28 08:07:44;;;;;;;0.10;0.10;;;23.80;63.60;;;;;;4964859;28;20030;-80
2023/08/28 08:10:11;;;;;;;0.00;0.00;;;24.60;61.50;;;;;;4946697;28;20028;-80
2023/08/28 08:12:38;;;;;;;0.10;0.10;;;25.30;58.90;;;;;;4969780;28;20015;-80
2023/08/28 08:15:06;;;;;;;0.20;0.20;;;26.40;55.30;;;;;;4955933;28;20065;-80
2023/08/28 08:17:31;;;;;;;0.10;0.10;;;27.50;54.40;;;;;;4968546;28;20042;-80
2023/08/28 08:19:57;;;;;;;0.40;0.40;;;27.60;52.20;;;;;;4950301;28;20730;-81
2023/08/28 08:22:23;;;;;;;0.00;0.00;;;27.90;51.70;;;;;;4967073;28;20031;-85
2023/08/28 08:24:48;;;;;;;0.20;0.20;;;27.30;52.30;;;;;;4961232;28;20027;-80
2023/08/28 08:27:14;;;;;;;0.20;0.20;;;26.50;53.80;;;;;;4967843;28;20030;-80
2023/08/28 08:29:40;;;;;;;0.00;0.00;;;25.80;56.40;;;;;;4953028;28;20389;-80
2023/08/28 08:32:06;;;;;;;0.00;0.00;;;25.30;57.10;;;;;;4967466;28;20106;-80
2023/08/28 08:34:34;;;;;;;0.00;0.00;;;24.90;57.30;;;;;;4971656;28;20031;-80
2023/08/28 08:37:00;;;;;;;0.00;0.00;;;24.40;58.20;;;;;;4951693;28;20525;-80
2023/08/28 08:39:26;;;;;;;0.03;0.03;;;24.80;57.80;;;;;;4952604;28;20066;-80
2023/08/28 08:41:53;;;;;;;0.30;0.30;;;24.40;58.20;;;;;;4971620;28;20103;-80
2023/08/28 08:44:19;;;;;;;0.40;0.40;;;25.30;56.90;;;;;;4966543;28;20035;-80
2023/08/28 08:46:45;;;;;;;0.50;0.50;;;26.30;55.00;;;;;;4968626;28;20030;-80
2023/08/28 08:49:15;;;;;;;0.50;0.50;;;27.20;52.80;;;;;;4954120;28;20026;-81
2023/08/28 08:51:48;;;;;;;0.40;0.40;;;27.80;50.90;;;;;;4967026;28;20053;-80
2023/08/28 08:54:20;;;;;;;0.00;0.00;;;27.50;50.90;;;;;;4967786;28;20548;-80
2023/08/28 08:56:53;;;;;;;0.00;0.00;;;27.10;51.90;;;;;;4955019;28;20114;-80
2023/08/28 08:59:20;;;;;;;0.00;0.00;;;26.70;52.20;;;;;;4952269;28;20462;-80
2023/08/28 09:01:46;;;;;;;0.00;0.00;;;26.30;53.30;;;;;;4952201;28;20031;-80
2023/08/28 09:04:13;;;;;;;0.00;0.00;;;25.50;54.10;;;;;;4967791;28;20102;-79
2023/08/28 09:06:40;;;;;;;0.00;0.00;;;25.10;54.20;;;;;;4969191;28;20031;-80
2023/08/28 09:09:09;;;;;;;0.00;0.00;;;24.80;56.10;;;;;;4951930;28;20035;-80
2023/08/28 09:11:40;;;;;;;0.00;0.00;;;24.50;57.20;;;;;;4970272;28;20689;-80
2023/08/28 09:14:06;;;;;;;0.10;0.10;;;24.30;57.30;;;;;;4967093;28;20402;-79
2023/08/28 09:16:35;;;;;;;0.08;0.08;;;24.80;55.30;;;;;;4950109;28;20027;-79
2023/08/28 09:19:01;;;;;;;0.00;0.00;;;25.50;54.80;;;;;;4967861;28;20070;-80
2023/08/28 09:21:37;;;;;;;0.00;0.00;;;25.20;54.50;;;;;;4951624;28;20393;-79
2023/08/28 09:24:09;;;;;;;0.00;0.00;;;24.40;56.10;;;;;;4952906;28;20042;-79
2023/08/28 09:26:38;;;;;;;0.35;0.00;;;23.90;58.10;;;;;;4966918;28;20023;-79
2023/08/28 09:29:08;;;;;;;0.00;0.00;;;23.50;59.10;;;;;;4950608;28;20067;-79
2023/08/28 09:31:39;;;;;;;0.00;0.00;;;23.20;60.00;;;;;;4963387;28;20041;-79
2023/08/28 09:34:05;;;;;;;0.10;0.10;;;23.00;60.30;;;;;;4967027;28;20446;-80
2023/08/28 09:36:40;;;;;;;0.00;0.00;;;23.00;60.70;;;;;;4962553;28;20027;-79
2023/08/28 09:39:06;;;;;;;0.00;0.00;;;23.00;59.60;;;;;;4966745;28;20031;-80
2023/08/28 09:41:40;;;;;;;0.03;0.03;;;23.10;61.10;;;;;;4971937;28;20114;-79
2023/08/28 09:44:06;;;;;;;0.00;0.00;;;23.20;60.70;;;;;;4966276;28;20043;-79
2023/08/28 09:46:31;;;;;;;0.00;0.00;;;23.50;60.90;;;;;;4967784;28;20073;-79
2023/08/28 09:48:57;;;;;;;0.00;0.00;;;23.40;61.80;;;;;;4950358;28;20110;-80
2023/08/28 09:51:39;;;;;;;0.03;0.03;;;23.20;61.30;;;;;;4953732;28;20503;-80
2023/08/28 09:54:05;;;;;;;0.00;0.00;;;23.00;61.90;;;;;;4963516;28;20027;-79
2023/08/28 09:56:31;;;;;;;0.00;0.00;;;22.90;61.90;;;;;;4968247;28;20027;-79
2023/08/28 09:59:03;;;;;;;0.00;0.00;;;22.80;62.00;;;;;;4952034;28;20043;-79
2023/08/28 10:01:33;;;;;;;0.00;0.00;;;22.90;62.40;;;;;;4968874;28;20019;-79
2023/08/28 10:04:01;;;;;;;0.00;0.00;;;23.00;61.90;;;;;;4967979;28;20034;-79
2023/08/28 10:06:29;;;;;;;0.00;0.00;;;23.10;61.90;;;;;;4948588;28;20107;-79
2023/08/28 10:09:00;;;;;;;0.10;0.10;;;23.10;61.70;;;;;;4964701;28;20118;-78
2023/08/28 10:11:35;;;;;;;0.03;0.03;;;23.20;62.20;;;;;;4967128;28;20027;-77
2023/08/28 10:14:03;;;;;;;0.00;0.00;;;23.00;61.60;;;;;;4968359;28;20052;-77
2023/08/28 10:16:33;;;;;;;0.00;0.00;;;22.90;62.20;;;;;;4959164;28;20038;-77
2023/08/28 10:19:09;;;;;;;0.00;0.00;;;22.60;60.00;;;;;;4959675;28;20038;-78
2023/08/28 10:21:35;;;;;;;0.30;0.30;;;22.50;60.00;;;;;;4985166;28;20061;-78
2023/08/28 10:24:01;;;;;;;0.10;0.10;;;22.50;60.90;;;;;;4984019;28;20048;-78
2023/08/28 10:26:29;;;;;;;0.00;0.00;;;22.80;61.50;;;;;;4959251;28;20066;-79
2023/08/28 10:28:55;;;;;;;0.10;0.10;;;22.90;60.70;;;;;;4961208;28;20026;-78
2023/08/28 10:31:21;;;;;;;0.00;0.00;;;23.10;60.90;;;;;;4981295;28;20049;-79
2023/08/28 10:33:48;;;;;;;0.00;0.00;;;23.30;60.50;;;;;;4965766;28;20031;-80
2023/08/28 10:36:15;;;;;;;0.10;0.10;;;23.50;60.40;;;;;;4979896;28;20037;-80
2023/08/28 10:38:43;;;;;;;0.10;0.10;;;23.70;61.30;;;;;;4965941;28;20034;-80
2023/08/28 10:41:10;;;;;;;0.00;0.00;;;24.00;59.00;;;;;;4958117;28;20038;-78
2023/08/28 10:43:35;;;;;;;0.00;0.00;;;24.00;59.20;;;;;;4966166;28;20137;-77
2023/08/28 10:46:03;;;;;;;0.00;0.00;;;23.70;56.00;;;;;;4967485;28;20047;-78
2023/08/28 10:48:29;;;;;;;0.00;0.00;;;23.30;54.10;;;;;;4948798;28;20078;-79
2023/08/28 10:50:57;;;;;;;0.00;0.00;;;23.40;54.00;;;;;;4967354;28;20023;-79
2023/08/28 10:53:22;;;;;;;0.03;0.03;;;23.40;54.30;;;;;;4947720;28;20450;-84
2023/08/28 10:56:02;;;;;;;0.00;0.00;;;23.60;55.70;;;;;;4942326;28;20033;-77
2023/08/28 10:58:31;;;;;;;0.00;0.00;;;23.70;56.30;;;;;;4966304;28;20035;-78
2023/08/28 11:01:17;;;;;;;0.10;0.10;;;23.70;57.00;;;;;;4967449;28;20063;-77
2023/08/28 11:03:56;;;;;;;0.10;0.10;;;23.80;56.50;;;;;;4963251;28;20524;-77
2023/08/28 11:06:34;;;;;;;0.00;0.00;;;23.80;55.30;;;;;;4951293;28;20027;-77
2023/08/28 11:09:28;;;;;;;0.03;0.03;;;24.00;55.00;;;;;;4966616;28;20098;-77
2023/08/28 11:12:00;;;;;;;0.00;0.00;;;24.20;55.80;;;;;;4965889;28;20051;-78
2023/08/28 11:14:33;;;;;;;0.00;0.00;;;23.80;53.90;;;;;;4966453;28;20539;-77
2023/08/28 11:17:13;;;;;;;0.00;0.00;;;23.70;55.20;;;;;;4964039;28;20047;-77
2023/08/28 11:19:56;;;;;;;0.00;0.00;;;23.50;56.20;;;;;;4956934;28;20039;-81
2023/08/28 11:22:45;;;;;;;0.10;0.10;;;23.20;57.20;;;;;;4969367;28;20046;-78
2023/08/28 11:25:34;;;;;;;0.10;0.10;;;23.40;57.80;;;;;;4962409;28;20035;-75
2023/08/28 11:28:00;;;;;;;0.00;0.00;;;23.40;58.10;;;;;;4971217;28;20019;-78
2023/08/28 11:30:26;;;;;;;0.00;0.00;;;23.50;56.70;;;;;;4977955;28;20035;-76
2023/08/28 11:32:53;;;;;;;0.00;0.00;;;23.50;56.10;;;;;;4978046;28;20500;-76
2023/08/28 11:35:20;;;;;;;0.00;0.00;;;23.70;54.80;;;;;;4949151;28;20050;-78
2023/08/28 11:37:51;;;;;;;0.10;0.10;;;23.70;55.10;;;;;;4963921;28;20035;-78
2023/08/28 11:40:34;;;;;;;0.10;0.10;;;23.80;54.00;;;;;;4979840;28;20034;-77
2023/08/28 11:43:03;;;;;;;0.00;0.00;;;24.10;55.20;;;;;;4979665;28;20019;-79
2023/08/28 11:45:29;;;;;;;0.00;0.00;;;24.20;55.00;;;;;;4978075;28;20058;-79
2023/08/28 11:47:58;;;;;;;0.00;0.00;;;23.90;53.80;;;;;;4960756;29;20026;-79
2023/08/28 11:50:23;;;;;;;0.10;0.10;;;23.80;55.40;;;;;;4943336;29;20035;-77
2023/08/28 11:52:50;;;;;;;0.00;0.00;;;23.80;55.90;;;;;;4943194;29;20027;-81
2023/08/28 11:55:15;;;;;;;0.00;0.00;;;23.80;55.70;;;;;;4943637;29;20031;-80
2023/08/28 11:57:43;;;;;;;0.00;0.00;;;23.40;54.10;;;;;;4960534;28;20034;-83
2023/08/28 12:00:14;;;;;;;0.10;0.10;;;23.30;55.40;;;;;;4960959;28;20041;-83
2023/08/28 12:02:42;;;;;;;0.00;0.00;;;23.30;54.10;;;;;;4958160;28;20023;-80
2023/08/28 12:05:09;;;;;;;0.00;0.00;;;23.50;53.70;;;;;;4951875;28;20085;-80
2023/08/28 12:07:35;;;;;;;0.10;0.10;;;23.50;53.80;;;;;;4951240;28;20063;-81
2023/08/28 12:10:01;;;;;;;0.00;0.00;;;23.70;54.30;;;;;;4968667;28;20046;-80
2023/08/28 12:12:27;;;;;;;0.10;0.10;;;23.90;53.80;;;;;;4950020;28;20073;-81
2023/08/28 12:14:53;;;;;;;0.00;0.00;;;24.00;52.80;;;;;;4969600;28;20039;-81
2023/08/28 12:17:24;;;;;;;0.00;0.00;;;23.80;53.00;;;;;;4969311;28;20442;-81
2023/08/28 12:19:50;;;;;;;0.10;0.10;;;23.60;53.70;;;;;;4968689;28;20031;-81
2023/08/28 12:22:19;;;;;;;0.10;0.10;;;23.60;54.00;;;;;;4966508;28;20058;-81
2023/08/28 12:24:46;;;;;;;0.00;0.00;;;23.90;55.10;;;;;;4971310;28;20033;-81
2023/08/28 12:27:13;;;;;;;0.00;0.00;;;23.80;53.70;;;;;;4971264;28;20045;-81
2023/08/28 12:29:43;;;;;;;0.00;0.00;;;23.70;54.10;;;;;;4966249;28;20041;-81
2023/08/28 12:32:16;;;;;;;0.00;0.00;;;23.60;54.60;;;;;;4969905;28;20501;-80
2023/08/28 12:34:42;;;;;;;0.00;0.00;;;23.50;54.60;;;;;;4953018;28;20086;-81
2023/08/28 12:37:11;;;;;;;0.10;0.10;;;23.50;55.50;;;;;;4953723;28;20023;-81
2023/08/28 12:39:44;;;;;;;0.00;0.00;;;23.80;53.70;;;;;;4967023;28;20039;-81
2023/08/28 12:42:11;;;;;;;0.00;0.00;;;23.70;53.80;;;;;;4969310;28;20027;-80
2023/08/28 12:44:37;;;;;;;0.00;0.00;;;23.40;52.70;;;;;;4967063;28;20508;-81
2023/08/28 12:47:03;;;;;;;0.00;0.00;;;23.40;53.40;;;;;;4967706;28;20031;-81
2023/08/28 12:49:29;;;;;;;0.00;0.00;;;23.40;53.10;;;;;;4970021;28;20109;-81
2023/08/28 12:51:54;;;;;;;0.10;0.10;;;23.70;52.70;;;;;;4950620;28;20090;-81
2023/08/28 12:54:21;;;;;;;0.10;0.10;;;24.00;52.50;;;;;;4967640;28;20033;-81
2023/08/28 12:56:51;;;;;;;0.08;0.08;;;24.30;50.30;;;;;;4961748;28;20110;-81
2023/08/28 12:59:17;;;;;;;0.10;0.10;;;24.60;50.50;;;;;;4969402;28;20037;-81
2023/08/28 13:01:43;;;;;;;0.10;0.10;;;24.70;50.40;;;;;;4952445;28;20113;-81
2023/08/28 13:04:09;;;;;;;0.00;0.00;;;25.00;51.20;;;;;;4961749;28;20150;-82
2023/08/28 13:06:36;;;;;;;0.00;0.00;;;24.80;51.00;;;;;;4967292;28;20036;-81
2023/08/28 13:09:03;;;;;;;0.00;0.00;;;24.60;50.80;;;;;;4951536;28;20383;-82
2023/08/28 13:11:29;;;;;;;0.00;0.00;;;24.50;51.10;;;;;;4964396;28;20026;-81
2023/08/28 13:13:55;;;;;;;0.00;0.00;;;24.40;52.10;;;;;;4971188;28;20035;-81
2023/08/28 13:16:21;;;;;;;0.10;0.10;;;24.60;51.60;;;;;;4970841;28;20027;-81
2023/08/28 13:18:47;;;;;;;0.10;0.10;;;24.70;51.00;;;;;;4975145;28;20049;-82
2023/08/28 13:21:13;;;;;;;0.00;0.00;;;24.80;51.50;;;;;;4956079;29;20027;-82
2023/08/28 13:23:38;;;;;;;0.10;0.10;;;24.90;51.30;;;;;;4945627;28;20046;-81
2023/08/28 13:26:04;;;;;;;0.10;0.10;;;24.40;50.40;;;;;;4966663;28;20110;-82
2023/08/28 13:28:29;;;;;;;0.08;0.08;;;24.10;52.10;;;;;;4941954;29;20027;-82
2023/08/28 13:30:55;;;;;;;0.05;0.05;;;24.00;50.50;;;;;;4963161;28;20094;-81
2023/08/28 13:33:21;;;;;;;0.05;0.05;;;24.00;50.40;;;;;;4958098;29;20114;-81
2023/08/28 13:35:48;;;;;;;0.05;0.05;;;24.00;50.40;;;;;;4958098;28;20034;-81
2023/08/28 13:38:15;;;;;;;0.08;0.08;;;24.00;50.90;;;;;;4972314;28;20028;-81
2023/08/28 13:40:41;;;;;;;0.00;0.00;;;24.00;50.60;;;;;;4954462;28;20025;-81
2023/08/28 13:43:06;;;;;;;0.00;0.00;;;24.00;49.90;;;;;;4958368;29;20066;-80
2023/08/28 13:45:33;;;;;;;0.05;0.05;;;24.20;49.60;;;;;;4957655;28;20027;-81
2023/08/28 13:47:59;;;;;;;0.00;0.00;;;24.00;49.90;;;;;;4949634;28;20034;-81
2023/08/28 13:50:24;;;;;;;0.00;0.00;;;24.10;49.60;;;;;;4951972;28;20021;-80
2023/08/28 13:52:50;;;;;;;0.10;0.10;;;24.00;49.60;;;;;;4966735;28;20035;-79
2023/08/28 13:55:16;;;;;;;0.00;0.00;;;24.10;49.50;;;;;;4948897;28;20019;-79
2023/08/28 13:57:41;;;;;;;0.00;0.00;;;24.20;49.80;;;;;;4960958;28;20043;-79
2023/08/28 14:00:14;;;;;;;0.00;0.00;;;24.20;49.70;;;;;;4950184;28;20481;-80
2023/08/28 14:02:41;;;;;;;0.10;0.10;;;24.10;48.50;;;;;;4966666;28;20387;-79
2023/08/28 14:05:14;;;;;;;0.08;0.08;;;24.10;47.80;;;;;;4969597;28;21305;-81
2023/08/28 14:07:40;;;;;;;;;;;24.20;48.90;;;;;;4966769;28;20053;-79
2023/08/28 14:10:06;;;;;;;0.10;0.10;;;24.20;48.20;;;;;;4965050;28;19910;-80
2023/08/28 14:12:31;;;;;;;0.00;0.00;;;24.20;47.40;;;;;;4949712;28;20054;-79
2023/08/28 14:15:00;;;;;;;0.10;0.10;;;24.10;48.00;;;;;;4966200;28;20462;-79
2023/08/28 14:17:26;;;;;;;0.05;0.05;;;24.00;48.90;;;;;;4948233;28;20027;-80
2023/08/28 14:19:52;;;;;;;0.00;0.00;;;23.70;48.00;;;;;;4967318;28;20015;-79
2023/08/28 14:22:17;;;;;;;0.05;0.05;;;23.80;48.10;;;;;;4968296;28;20453;-80
2023/08/28 14:24:43;;;;;;;0.00;0.00;;;23.80;48.90;;;;;;4967759;28;20110;-80
2023/08/28 14:27:09;;;;;;;0.05;0.05;;;23.80;48.70;;;;;;4969153;28;20058;-79
2023/08/28 14:29:35;;;;;;;0.10;0.10;;;23.90;49.40;;;;;;4949364;28;20034;-80
2023/08/28 14:32:01;;;;;;;0.10;0.10;;;23.90;48.90;;;;;;4950074;28;20038;-80
2023/08/28 14:34:26;;;;;;;0.00;0.00;;;23.90;48.30;;;;;;4949557;28;20490;-80
2023/08/28 14:36:52;;;;;;;0.10;0.10;;;24.00;47.30;;;;;;4967101;28;20030;-80
2023/08/28 14:39:18;;;;;;;0.00;0.00;;;24.00;48.10;;;;;;4949331;28;20142;-80
2023/08/28 14:41:43;;;;;;;0.08;0.08;;;23.90;45.70;;;;;;4953554;28;20031;-80
2023/08/28 14:44:09;;;;;;;0.00;0.00;;;23.80;45.10;;;;;;4961827;28;21681;-80
2023/08/28 14:46:35;;;;;;;0.10;0.10;;;23.80;45.50;;;;;;4947183;28;20402;-79
2023/08/28 14:49:04;;;;;;;0.10;0.10;;;23.70;45.30;;;;;;4962875;28;20027;-80
2023/08/28 14:51:30;;;;;;;0.10;0.10;;;23.80;45.90;;;;;;4964213;28;20110;-83
2023/08/28 14:53:59;;;;;;;0.05;0.05;;;23.90;48.20;;;;;;4943695;28;20392;-81
2023/08/28 14:56:25;;;;;;;0.00;0.00;;;24.10;47.40;;;;;;4952434;28;20023;-80
2023/08/28 14:58:51;;;;;;;0.00;0.00;;;24.20;48.00;;;;;;4951321;28;20477;-78
2023/08/28 15:01:17;;;;;;;0.00;0.00;;;23.90;46.50;;;;;;4966095;28;20068;-80
2023/08/28 15:03:44;;;;;;;0.00;0.00;;;23.70;47.10;;;;;;4966259;28;20078;-80
2023/08/28 15:06:10;;;;;;;0.00;0.00;;;23.40;47.50;;;;;;4963762;28;20049;-80
2023/08/28 15:08:36;;;;;;;0.00;0.00;;;23.30;46.80;;;;;;4969103;28;20494;-81
2023/08/28 15:11:01;;;;;;;0.00;0.00;;;23.40;47.10;;;;;;4966056;28;20046;-79
2023/08/28 15:13:27;;;;;;;0.00;0.00;;;23.50;45.50;;;;;;4948975;28;20110;-80
2023/08/28 15:15:53;;;;;;;0.10;0.10;;;23.40;47.00;;;;;;4966873;28;20126;-80
2023/08/28 15:18:18;;;;;;;0.05;0.05;;;23.40;47.80;;;;;;4965665;28;20033;-80
2023/08/28 15:20:45;;;;;;;0.10;0.10;;;23.60;47.20;;;;;;4951506;28;20427;-80
2023/08/28 15:23:11;;;;;;;0.00;0.00;;;23.70;46.50;;;;;;4964218;28;20031;-82
2023/08/28 15:25:37;;;;;;;0.00;0.00;;;23.60;48.00;;;;;;4963403;28;20042;-82
2023/08/28 15:28:03;;;;;;;0.05;0.05;;;23.70;48.40;;;;;;4971936;28;20031;-81
2023/08/28 15:30:29;;;;;;;0.00;0.00;;;23.70;50.20;;;;;;4975561;28;20043;-81
2023/08/28 15:32:56;;;;;;;0.10;0.10;;;23.40;49.90;;;;;;4975686;28;20449;-81
2023/08/28 15:35:21;;;;;;;0.10;0.10;;;23.30;50.00;;;;;;4961092;28;20030;-80
2023/08/28 15:37:47;;;;;;;0.00;0.00;;;23.10;48.40;;;;;;4974361;28;20034;-81
2023/08/28 15:40:13;;;;;;;0.00;0.00;;;23.00;48.40;;;;;;4964904;28;20031;-80
2023/08/28 15:42:39;;;;;;;0.08;0.08;;;22.90;49.50;;;;;;4964450;28;20027;-80
2023/08/28 15:45:05;;;;;;;0.00;0.00;;;22.90;50.20;;;;;;4950250;28;20033;-81
2023/08/28 15:47:31;;;;;;;0.00;0.00;;;22.90;50.70;;;;;;4965224;28;20154;-81
2023/08/28 15:49:58;;;;;;;0.00;0.00;;;22.90;51.70;;;;;;4941526;28;20118;-80
2023/08/28 15:52:24;;;;;;;0.00;0.00;;;22.80;52.10;;;;;;4967461;28;20141;-79
2023/08/28 15:54:51;;;;;;;0.10;0.10;;;22.90;51.50;;;;;;4962665;28;20138;-80
2023/08/28 15:57:17;;;;;;;0.00;0.00;;;22.80;52.20;;;;;;4949983;28;20034;-81
2023/08/28 15:59:46;;;;;;;0.00;0.00;;;22.90;51.80;;;;;;4948181;28;20054;-81
2023/08/28 16:02:12;;;;;;;0.00;0.00;;;22.90;51.80;;;;;;4966743;28;20512;-79
2023/08/28 16:04:38;;;;;;;0.00;0.00;;;22.90;52.00;;;;;;4947545;28;20027;-82
2023/08/28 16:07:04;;;;;;;0.00;0.00;;;22.90;52.50;;;;;;4966761;28;20045;-82
2023/08/28 16:09:29;;;;;;;0.00;0.00;;;22.80;52.20;;;;;;4949938;28;20489;-81
2023/08/28 16:11:56;;;;;;;0.00;0.00;;;22.80;52.50;;;;;;4948187;28;20086;-79
2023/08/28 16:14:23;;;;;;;0.10;0.10;;;22.80;53.00;;;;;;4965161;28;20023;-80
2023/08/28 16:16:50;;;;;;;0.00;0.00;;;22.80;52.60;;;;;;4946840;28;20030;-80
2023/08/28 16:19:17;;;;;;;0.00;0.00;;;22.70;52.50;;;;;;4956620;28;20031;-81
2023/08/28 16:21:43;;;;;;;0.00;0.00;;;22.70;53.20;;;;;;4977804;28;20026;-80
2023/08/28 16:24:09;;;;;;;0.00;0.00;;;22.60;52.80;;;;;;4975351;28;20532;-80
2023/08/28 16:26:35;;;;;;;0.00;0.00;;;22.60;53.10;;;;;;4973644;28;20031;-81
2023/08/28 16:29:00;;;;;;;0.00;0.00;;;22.60;53.00;;;;;;4967933;28;20022;-82
2023/08/28 16:31:26;;;;;;;0.00;0.00;;;22.50;52.70;;;;;;4968048;28;20055;-83
2023/08/28 16:33:52;;;;;;;0.00;0.00;;;22.40;53.70;;;;;;4968811;28;20031;-82
2023/08/28 16:36:17;;;;;;;0.00;0.00;;;22.40;53.40;;;;;;4961282;28;20058;-80
2023/08/28 16:38:43;;;;;;;0.00;0.00;;;22.40;53.50;;;;;;4979393;28;20920;-80
2023/08/28 16:41:08;;;;;;;0.00;0.00;;;22.40;53.90;;;;;;4972990;28;20031;-79
2023/08/28 16:43:34;;;;;;;0.00;0.00;;;22.40;54.00;;;;;;4952752;28;20032;-79
2023/08/28 16:46:00;;;;;;;0.00;0.00;;;22.40;54.60;;;;;;4947880;28;20122;-77
2023/08/28 16:48:25;;;;;;;0.00;0.00;;;22.40;55.30;;;;;;4967869;28;20057;-81
2023/08/28 16:50:52;;;;;;;0.00;0.00;;;22.30;54.20;;;;;;4970850;28;20057;-80
2023/08/28 16:53:18;;;;;;;0.00;0.00;;;22.20;54.40;;;;;;4973634;28;20046;-80
2023/08/28 16:55:44;;;;;;;0.00;0.00;;;22.20;54.60;;;;;;4969593;28;20049;-80
2023/08/28 16:58:10;;;;;;;0.00;0.00;;;21.90;55.00;;;;;;4944135;29;20035;-79
2023/08/28 17:00:39;;;;;;;0.00;0.00;;;21.90;55.40;;;;;;4959372;29;20658;-80
2023/08/28 17:03:05;;;;;;;0.00;0.00;;;21.90;54.60;;;;;;4973361;28;20050;-79
2023/08/28 17:05:31;;;;;;;0.00;0.00;;;21.90;54.90;;;;;;4965089;28;20125;-80
2023/08/28 17:07:58;;;;;;;0.00;0.00;;;21.80;55.00;;;;;;4959056;28;20034;-79
2023/08/28 17:10:29;;;;;;;0.00;0.00;;;21.80;55.30;;;;;;4975237;28;20393;-79
2023/08/28 17:12:55;;;;;;;0.00;0.00;;;21.80;55.60;;;;;;4973803;28;20378;-78
2023/08/28 17:15:22;;;;;;;0.00;0.00;;;21.80;55.70;;;;;;4976855;28;20035;-77
2023/08/28 17:17:48;;;;;;;0.00;0.00;;;21.80;55.90;;;;;;4973962;28;20026;-81